createdAt,value
2017-05-31T05:36:51.122Z,24.97
2017-05-31T05:37:24.252Z,25.04
2017-05-31T05:37:56.503Z,25.11
2017-05-31T05:38:28.765Z,25.08
2017-05-31T05:39:01.003Z,25.02
2017-05-31T05:39:33.242Z,25.2
2017-05-31T05:40:06.292Z,25.22
2017-05-31T05:40:38.554Z,25.2
2017-05-31T05:41:11.759Z,25.14
2017-05-31T05:41:44.011Z,25.27
2017-05-31T05:42:16.253Z,25.24
2017-05-31T05:42:51.242Z,25.22
2017-05-31T05:43:23.632Z,25.23
2017-05-31T05:43:55.951Z,25.27
2017-05-31T05:44:28.279Z,25.32
2017-05-31T05:45:00.572Z,25.34
2017-05-31T05:45:32.889Z,25.32
2017-05-31T05:46:05.187Z,25.32
2017-05-31T05:46:37.496Z,25.33
2017-05-31T05:47:09.817Z,25.38
2017-05-31T05:47:42.143Z,25.34
2017-05-31T05:48:14.440Z,25.44
2017-05-31T05:48:46.769Z,25.44
2017-05-31T05:49:19.086Z,25.38
2017-05-31T05:49:51.451Z,25.38
2017-05-31T05:50:23.740Z,25.51
2017-05-31T05:50:56.044Z,25.49
2017-05-31T05:51:28.344Z,25.41
2017-05-31T05:52:00.649Z,25.41
2017-05-31T05:52:32.971Z,25.52
2017-05-31T05:53:05.258Z,25.54
2017-05-31T05:53:37.534Z,25.59
2017-05-31T05:54:10.687Z,25.57
2017-05-31T05:54:42.997Z,25.63
2017-05-31T05:55:15.238Z,25.63
2017-05-31T05:55:47.488Z,25.63
2017-05-31T05:56:19.748Z,25.56
2017-05-31T05:56:52.002Z,25.64
2017-05-31T05:57:24.262Z,25.71
2017-05-31T05:57:57.648Z,25.64
2017-05-31T05:58:29.910Z,25.67
2017-05-31T05:59:02.157Z,25.74
2017-05-31T05:59:34.405Z,25.74
2017-05-31T06:00:07.602Z,25.78
2017-05-31T06:00:39.906Z,25.82
2017-05-31T06:01:12.152Z,25.79
2017-05-31T06:01:44.426Z,25.75
2017-05-31T06:02:16.670Z,25.79
2017-05-31T06:02:48.914Z,25.79
2017-05-31T06:03:21.186Z,25.86
2017-05-31T06:03:53.475Z,25.88
2017-05-31T06:04:25.751Z,25.89
2017-05-31T06:04:58.092Z,25.85
2017-05-31T06:05:30.374Z,25.81
2017-05-31T06:06:02.654Z,25.94
2017-05-31T06:06:34.932Z,25.89
2017-05-31T06:07:07.227Z,25.93
2017-05-31T06:07:39.508Z,25.94
2017-05-31T06:08:23.400Z,26
2017-05-31T06:09:01.364Z,26
2017-05-31T06:09:34.676Z,25.99
2017-05-31T06:10:06.957Z,26.09
2017-05-31T06:10:39.266Z,26.07
2017-05-31T06:11:11.555Z,26.06
2017-05-31T06:11:43.845Z,26.09
2017-05-31T06:12:16.120Z,26.09
2017-05-31T06:12:48.412Z,26.12
2017-05-31T06:13:21.213Z,26.12
2017-05-31T06:13:53.486Z,26.07
2017-05-31T06:14:25.803Z,26.16
2017-05-31T06:14:58.088Z,26.26
2017-05-31T06:15:31.813Z,26.24
2017-05-31T06:16:04.122Z,26.19
2017-05-31T06:16:37.383Z,26.22
2017-05-31T06:17:09.659Z,26.23
2017-05-31T06:17:41.937Z,26.32
2017-05-31T06:18:14.737Z,26.2
2017-05-31T06:18:46.988Z,26.24
2017-05-31T06:19:19.245Z,26.34
2017-05-31T06:19:51.497Z,26.37
2017-05-31T06:20:23.750Z,26.34
2017-05-31T06:20:55.997Z,26.35
2017-05-31T06:21:28.270Z,26.37
2017-05-31T06:22:00.523Z,26.45
2017-05-31T06:22:32.806Z,26.35
2017-05-31T06:23:05.072Z,26.35
2017-05-31T06:23:37.368Z,26.35
2017-05-31T06:24:09.659Z,26.37
2017-05-31T06:24:41.967Z,26.44
2017-05-31T06:25:14.245Z,26.41
2017-05-31T06:25:46.532Z,26.5
2017-05-31T06:26:18.806Z,26.53
